^^
Station Historical Data
Daily Summary for January 19, 2018 Units:  Metric    English   Both
« Previous Day
Next Day »
Daily Weekly Monthly Yearly Custom
  High: Low: Average:
Temperature: -17.8 °C 20.3 °C 26.1 °C
Dew Point: -17.8 °C 5.6 °C 9.8 °C
Humidity: Humidity% 17% 38%
Wind Speed: 0km/h 0km/h 4.8km/h
Wind Gust: 0km/h - -
Wind- - SSE
Pressure: 0 hPa 998.5 hPa -
Precipitation: 0 mm    
Historical Graphs
 
 
Tabular Data for January 19, 2018
Time Temperature Dew Point Pressure Wind Wind Speed Wind Gust Humidity Rainfall Rate (Hourly) solar Conditions
-17.8 °C -17.8 °C 0 hPa Calm     Humidity% 0 mm SolarRadiationWatts/m^2 W/m2 Conditions
00:04 23.7 °C 11.1 °C 1005.3 hPa Calm   4.8 km/h 45% 0 mm 0.0 W/m2
00:09 23.6 °C 11 °C 1005 hPa SSW 9.7 km/h 9.7 km/h 45% 0 mm 0.0 W/m2
00:15 23.4 °C 10.8 °C 1005 hPa SW 4.7 km/h 8 km/h 45% 0 mm 0.0 W/m2
00:20 23.4 °C 10.8 °C 1005 hPa South 3.2 km/h 6.4 km/h 45% 0 mm 0.0 W/m2
00:26 23.3 °C 11 °C 1004.6 hPa Calm   8 km/h 46% 0 mm 0.0 W/m2
00:31 23.2 °C 10.6 °C 1005 hPa SSE 3.2 km/h 9.7 km/h 45% 0 mm 0.0 W/m2
00:36 23.3 °C 10.7 °C 1004.6 hPa SSE 4.7 km/h 17.7 km/h 45% 0 mm 0.0 W/m2
00:41 23.3 °C 10.7 °C 1004.6 hPa SSE 4.7 km/h 9.7 km/h 45% 0 mm 0.0 W/m2
00:46 23.4 °C 10.8 °C 1004.6 hPa SSE 1.4 km/h 11.3 km/h 45% 0 mm 0.0 W/m2
00:51 23.4 °C 10.5 °C 1004.6 hPa SW 4.7 km/h 8 km/h 44% 0 mm 0.0 W/m2
00:56 23.4 °C 10.1 °C 1004.3 hPa South 9.7 km/h 20.9 km/h 43% 0 mm 0.0 W/m2
01:02 23.4 °C 10.1 °C 1004.3 hPa SSW 7.9 km/h 14.5 km/h 43% 0 mm 0.0 W/m2
01:07 23.5 °C 10.2 °C 1003.9 hPa SSW 4.7 km/h 20.9 km/h 43% 0 mm 0.0 W/m2
01:12 23.5 °C 9.8 °C 1003.9 hPa South 6.4 km/h 20.9 km/h 42% 0 mm 0.0 W/m2
01:17 23.5 °C 10.2 °C 1003.9 hPa SW 6.4 km/h 14.5 km/h 43% 0 mm 0.0 W/m2
01:23 23.4 °C 10.1 °C 1003.9 hPa SSE 3.2 km/h 14.5 km/h 43% 0 mm 0.0 W/m2
01:28 23.4 °C 10.1 °C 1003.9 hPa South 16.3 km/h 19.3 km/h 43% 0 mm 0.0 W/m2
01:33 23.4 °C 10.1 °C 1003.9 hPa SSE 7.9 km/h 14.5 km/h 43% 0 mm 0.0 W/m2
01:38 23.5 °C 10.2 °C 1003.9 hPa ESE 11.1 km/h 25.7 km/h 43% 0 mm 0.0 W/m2
01:43 23.6 °C 10.3 °C 1003.9 hPa South 4.7 km/h 16.1 km/h 43% 0 mm 0.0 W/m2
01:48 23.6 °C 10.3 °C 1003.6 hPa SW 11.1 km/h 16.1 km/h 43% 0 mm 0.0 W/m2
01:53 23.6 °C 10.3 °C 1003.6 hPa SSW 14.3 km/h 20.9 km/h 43% 0 mm 0.0 W/m2
01:58 23.5 °C 10.2 °C 1003.6 hPa SSE 4.7 km/h 17.7 km/h 43% 0 mm 0.0 W/m2
02:03 23.4 °C 10.1 °C 1003.6 hPa WSW 11.1 km/h 12.9 km/h 43% 0 mm 0.0 W/m2
02:08 23.3 °C 10 °C 1003.6 hPa SSE 20.9 km/h 20.9 km/h 43% 0 mm 0.0 W/m2
02:14 23.3 °C 10.4 °C 1003.6 hPa SSE 4.7 km/h 14.5 km/h 44% 0 mm 0.0 W/m2
02:19 23.2 °C 10.3 °C 1003.6 hPa South 3.2 km/h 11.3 km/h 44% 0 mm 0.0 W/m2
02:24 23.2 °C 10.3 °C 1003.6 hPa South 1.4 km/h 8 km/h 44% 0 mm 0.0 W/m2
02:29 23.2 °C 10.3 °C 1003.9 hPa WSW 3.2 km/h 8 km/h 44% 0 mm 0.0 W/m2
02:34 23.2 °C 10.3 °C 1003.9 hPa Calm   4.8 km/h 44% 0 mm 0.0 W/m2
02:39 23.1 °C 10.2 °C 1003.9 hPa NE 6.4 km/h 6.4 km/h 44% 0 mm 0.0 W/m2
02:44 22.9 °C 10 °C 1003.9 hPa NNW 4.7 km/h 6.4 km/h 44% 0 mm 0.0 W/m2
02:49 22.8 °C 10.2 °C 1003.9 hPa WNW 6.4 km/h 8 km/h 45% 0 mm 0.0 W/m2
02:55 22.7 °C 10.2 °C 1003.9 hPa Calm   3.2 km/h 45% 0 mm 0.0 W/m2
03:00 22.6 °C 10.4 °C 1003.9 hPa Calm   1.6 km/h 46% 0 mm 0.0 W/m2
03:05 22.4 °C 10.2 °C 1003.6 hPa Calm   1.6 km/h 46% 0 mm 0.0 W/m2
03:11 22.3 °C 10.1 °C 1003.6 hPa Calm     46% 0 mm 0.0 W/m2
03:16 22.2 °C 10 °C 1003.6 hPa Calm   4.8 km/h 46% 0 mm 0.0 W/m2
03:21 22.2 °C 10.4 °C 1003.6 hPa WNW 1.4 km/h 1.6 km/h 47% 0 mm 0.0 W/m2
03:26 22.1 °C 10.3 °C 1003.6 hPa Calm   4.8 km/h 47% 0 mm 0.0 W/m2
03:31 21.9 °C 10.1 °C 1003.6 hPa NW 1.4 km/h 4.8 km/h 47% 0 mm 0.0 W/m2
03:36 21.9 °C 10.1 °C 1003.6 hPa SW 3.2 km/h 14.5 km/h 47% 0 mm 0.0 W/m2
03:41 22.2 °C 10 °C 1003.6 hPa SW 3.2 km/h 8 km/h 46% 0 mm 0.0 W/m2
03:46 22.2 °C 10 °C 1003.6 hPa WSW 4.7 km/h 9.7 km/h 46% 0 mm 0.0 W/m2
03:51 22.3 °C 10.1 °C 1003.6 hPa South 1.4 km/h 6.4 km/h 46% 0 mm 0.0 W/m2
03:56 22.3 °C 10.1 °C 1003.6 hPa NNE 4.7 km/h 4.8 km/h 46% 0 mm 0.0 W/m2
04:01 22.2 °C 10 °C 1003.6 hPa NW 4.7 km/h 9.7 km/h 46% 0 mm 0.0 W/m2
04:06 22.1 °C 10.3 °C 1003.9 hPa Calm   6.4 km/h 47% 0 mm 0.0 W/m2
04:11 21.9 °C 10.1 °C 1003.6 hPa Calm   1.6 km/h 47% 0 mm 0.0 W/m2
04:16 21.8 °C 10.3 °C 1003.6 hPa Calm     48% 0 mm 0.0 W/m2
04:21 21.7 °C 10.2 °C 1003.6 hPa Calm   3.2 km/h 48% 0 mm 0.0 W/m2
04:26 21.6 °C 10.1 °C 1003.6 hPa Calm   1.6 km/h 48% 0 mm 0.0 W/m2
04:31 21.4 °C 9.9 °C 1003.6 hPa Calm   6.4 km/h 48% 0 mm 0.0 W/m2
04:36 21.4 °C 10.2 °C 1003.6 hPa Calm     49% 0 mm 0.0 W/m2
04:42 21.3 °C 10.2 °C 1003.6 hPa Calm     49% 0 mm 0.0 W/m2
04:47 21.2 °C 10.1 °C 1003.6 hPa Calm   1.6 km/h 49% 0 mm 0.0 W/m2
04:52 21.2 °C 10.1 °C 1003.6 hPa Calm   1.6 km/h 49% 0 mm 0.0 W/m2
04:58 21.1 °C 10 °C 1003.6 hPa Calm     49% 0 mm 0.0 W/m2
05:03 21.1 °C 10.3 °C 1003.6 hPa Calm     50% 0 mm 0.0 W/m2
05:08 20.9 °C 10.1 °C 1003.6 hPa Calm   1.6 km/h 50% 0 mm 0.0 W/m2
05:14 20.9 °C 9.8 °C 1003.6 hPa West 1.4 km/h 3.2 km/h 49% 0 mm 0.0 W/m2
05:19 20.8 °C 10 °C 1003.9 hPa Calm     50% 0 mm 0.0 W/m2
05:24 20.8 °C 10 °C 1003.9 hPa Calm   1.6 km/h 50% 0 mm 0.0 W/m2
05:29 20.7 °C 10.2 °C 1003.9 hPa Calm     51% 0 mm 0.0 W/m2
05:35 20.6 °C 10.1 °C 1003.9 hPa Calm   1.6 km/h 51% 0 mm 0.0 W/m2
05:40 20.6 °C 10.1 °C 1003.9 hPa Calm     51% 0 mm 0.0 W/m2
05:45 20.5 °C 10 °C 1003.9 hPa Calm     51% 0 mm 0.0 W/m2
05:50 20.4 °C 10.2 °C 1004.3 hPa Calm   1.6 km/h 52% 0 mm 0.0 W/m2
05:55 20.3 °C 10.1 °C 1004.3 hPa Calm   1.6 km/h 52% 0 mm 0.0 W/m2
06:00 20.3 °C 10.1 °C 1004.3 hPa Calm   1.6 km/h 52% 0 mm 0.0 W/m2
06:06 20.5 °C 9.7 °C 1004.3 hPa SSW 3.2 km/h 4.8 km/h 50% 0 mm 0.0 W/m2
06:10 20.8 °C 10 °C 1004.3 hPa SW 1.4 km/h 3.2 km/h 50% 0 mm 0.0 W/m2
06:15 20.9 °C 9.8 °C 1004.3 hPa Calm     49% 0 mm 0.0 W/m2
06:20 20.9 °C 9.8 °C 1004.3 hPa Calm     49% 0 mm 0.0 W/m2
06:25 20.8 °C 10 °C 1004.3 hPa Calm     50% 0 mm 5.0 W/m2
06:31 20.7 °C 9.9 °C 1004.3 hPa Calm   3.2 km/h 50% 0 mm 7.0 W/m2
06:36 20.7 °C 9.9 °C 1004.6 hPa SE 4.7 km/h 6.4 km/h 50% 0 mm 11.0 W/m2
06:41 20.7 °C 9.6 °C 1004.6 hPa Calm   9.7 km/h 49% 0 mm 12.0 W/m2
06:47 20.8 °C 9.4 °C 1004.6 hPa Calm   1.6 km/h 48% 0 mm 14.0 W/m2
06:53 21.1 °C 9.7 °C 1004.6 hPa Calm   12.9 km/h 48% 0 mm 18.0 W/m2
06:58 21.3 °C 9.8 °C 1004.6 hPa SSE 7.9 km/h 11.3 km/h 48% 0 mm 21.0 W/m2
07:03 21.5 °C 9.7 °C 1004.6 hPa SE 4.7 km/h 6.4 km/h 47% 0 mm 21.0 W/m2
07:08 21.7 °C 9.9 °C 1004.6 hPa South 9.7 km/h 12.9 km/h 47% 0 mm 23.0 W/m2
07:13 21.8 °C 10 °C 1004.6 hPa SSW 1.4 km/h 9.7 km/h 47% 0 mm 25.0 W/m2
07:18 22.1 °C 9.9 °C 1004.6 hPa South 1.4 km/h 16.1 km/h 46% 0 mm 26.0 W/m2
07:24 22.3 °C 9.5 °C 1004.3 hPa SSW 1.4 km/h 17.7 km/h 44% 0 mm 28.0 W/m2
07:29 22.6 °C 9.4 °C 1004.3 hPa SSE 4.7 km/h 17.7 km/h 43% 0 mm 30.0 W/m2
07:35 22.9 °C 9.3 °C 1003.9 hPa SSE 16.3 km/h 25.7 km/h 42% 0 mm 32.0 W/m2
07:40 23.1 °C 9.5 °C 1003.9 hPa ESE 7.9 km/h 20.9 km/h 42% 0 mm 33.0 W/m2
07:45 23.3 °C 9.3 °C 1003.9 hPa SSE 11.1 km/h 14.5 km/h 41% 0 mm 53.0 W/m2
07:51 23.6 °C 9.2 °C 1003.9 hPa ESE 6.4 km/h 19.3 km/h 40% 0 mm 98.0 W/m2
07:56 23.8 °C 9 °C 1003.9 hPa SE 9.7 km/h 22.5 km/h 39% 0 mm 283.0 W/m2
08:01 24.1 °C 8.9 °C 1003.9 hPa SE 9.7 km/h 33.8 km/h 38% 0 mm 325.0 W/m2
08:07 24.3 °C 9.1 °C 1003.9 hPa SE 16.3 km/h 25.7 km/h 38% 0 mm 355.0 W/m2
08:12 24.6 °C 8.9 °C 1003.9 hPa ESE 14.3 km/h 29 km/h 37% 0 mm 376.0 W/m2
08:17 24.8 °C 9.1 °C 1003.9 hPa SSE 19.5 km/h 32.2 km/h 37% 0 mm 397.0 W/m2
08:23 24.9 °C 8.8 °C 1003.9 hPa ESE 20.9 km/h 29 km/h 36% 0 mm 424.0 W/m2
08:28 25.1 °C 8.6 °C 1003.9 hPa SSE 7.9 km/h 27.4 km/h 35% 0 mm 443.0 W/m2
08:33 25.2 °C 9.1 °C 1003.9 hPa South 9.7 km/h 29 km/h 36% 0 mm 461.0 W/m2
08:39 25.5 °C 8.5 °C 1003.9 hPa South 7.9 km/h 32.2 km/h 34% 0 mm 489.0 W/m2
08:44 25.7 °C 8.7 °C 1003.9 hPa SE 16.3 km/h 35.4 km/h 34% 0 mm 508.0 W/m2
08:49 25.8 °C 8.3 °C 1003.9 hPa SE 11.1 km/h 30.6 km/h 33% 0 mm 526.0 W/m2
08:55 26.1 °C 8.6 °C 1003.9 hPa SE 13 km/h 19.3 km/h 33% 0 mm 548.0 W/m2
09:00 26.3 °C 8.3 °C 1003.9 hPa ESE 24.1 km/h 37 km/h 32% 0 mm 568.0 W/m2
09:05 26.4 °C 7.9 °C 1003.9 hPa SSE 13 km/h 33.8 km/h 31% 0 mm 585.0 W/m2
09:11 26.7 °C 8.2 °C 1003.9 hPa SSE 9.7 km/h 20.9 km/h 31% 0 mm 608.0 W/m2
09:16 26.9 °C 8.3 °C 1003.9 hPa SE 19.5 km/h 19.5 km/h 31% 0 mm 626.0 W/m2
09:21 27.1 °C 8 °C 1003.9 hPa ESE 4.7 km/h 32.2 km/h 30% 0 mm 645.0 W/m2
09:27 27.3 °C 8.2 °C 1003.9 hPa South 17.7 km/h 22.5 km/h 30% 0 mm 666.0 W/m2
09:32 27.4 °C 8.3 °C 1003.9 hPa SE 14.3 km/h 25.7 km/h 30% 0 mm 682.0 W/m2
09:37 27.6 °C 8.5 °C 1003.9 hPa SE 6.4 km/h 22.5 km/h 30% 0 mm 700.0 W/m2
09:43 27.8 °C 8.1 °C 1003.9 hPa SE 11.1 km/h 14.5 km/h 29% 0 mm 717.0 W/m2
09:48 28.1 °C 7.9 °C 1003.9 hPa SSE 16.3 km/h 27.4 km/h 28% 0 mm 737.0 W/m2
09:53 28.2 °C 8.5 °C 1003.9 hPa SE 14.3 km/h 20.9 km/h 29% 0 mm 747.0 W/m2
09:59 28.4 °C 8.1 °C 1003.9 hPa SSE 25.9 km/h 29 km/h 28% 0 mm 763.0 W/m2
10:04 28.4 °C 8.1 °C 1003.9 hPa ESE 9.7 km/h 17.7 km/h 28% 0 mm 782.0 W/m2
10:09 28.6 °C 8.3 °C 1003.9 hPa SSE 7.9 km/h 25.7 km/h 28% 0 mm 798.0 W/m2
10:15 28.9 °C 8.6 °C 1003.9 hPa SSW 14.3 km/h 24.1 km/h 28% 0 mm 814.0 W/m2
10:21 29 °C 8.1 °C 1003.9 hPa SE 11.1 km/h 20.9 km/h 27% 0 mm 831.0 W/m2
10:26 29.1 °C 8.2 °C 1003.6 hPa South 11.1 km/h 22.5 km/h 27% 0 mm 846.0 W/m2
10:31 29.2 °C 8.3 °C 1003.6 hPa ESE 13 km/h 25.7 km/h 27% 0 mm 858.0 W/m2
10:36 29.4 °C 8.4 °C 1003.6 hPa SE 7.9 km/h 16.1 km/h 27% 0 mm 872.0 W/m2
10:41 29.6 °C 8.6 °C 1003.6 hPa SE 20.9 km/h 24.1 km/h 27% 0 mm 886.0 W/m2
10:46 29.7 °C 8.1 °C 1003.6 hPa SSE 9.7 km/h 17.7 km/h 26% 0 mm 895.0 W/m2
10:52 29.8 °C 8.2 °C 1003.6 hPa SSE 7.9 km/h 29 km/h 26% 0 mm 912.0 W/m2
10:57 29.9 °C 8.3 °C 1003.6 hPa South 14.3 km/h 17.7 km/h 26% 0 mm 921.0 W/m2
11:02 30.2 °C 8.6 °C 1003.6 hPa SE 13 km/h 17.7 km/h 26% 0 mm 930.0 W/m2
11:07 30.4 °C 8.7 °C 1003.6 hPa SE 16.3 km/h 16.3 km/h 26% 0 mm 940.0 W/m2
11:12 30.5 °C 8.2 °C 1003.6 hPa SE 3.2 km/h 16.1 km/h 25% 0 mm 953.0 W/m2
11:17 30.6 °C 8.3 °C 1003.3 hPa East 3.2 km/h 16.1 km/h 25% 0 mm 963.0 W/m2
11:22 30.6 °C 8.9 °C 1003.3 hPa SE 17.7 km/h 17.7 km/h 26% 0 mm 972.0 W/m2
11:27 30.7 °C 9 °C 1003.3 hPa SE 13 km/h 16.1 km/h 26% 0 mm 983.0 W/m2
11:33 30.9 °C 8.6 °C 1003.3 hPa ESE 13 km/h 16.1 km/h 25% 0 mm 990.0 W/m2
11:38 31.1 °C 8.8 °C 1003.3 hPa SSE 9.7 km/h 11.3 km/h 25% 0 mm 997.0 W/m2
11:43 31.2 °C 8.2 °C 1003.3 hPa SE 3.2 km/h 12.9 km/h 24% 0 mm 1000.0 W/m2
11:49 31.4 °C 8.4 °C 1003.3 hPa ESE 3.2 km/h 12.9 km/h 24% 0 mm 1011.0 W/m2
11:54 31.7 °C 8.7 °C 1003.3 hPa ESE 6.4 km/h 12.9 km/h 24% 0 mm 1016.0 W/m2
11:59 31.8 °C 8.7 °C 1003.3 hPa East 4.7 km/h 12.9 km/h 24% 0 mm 1025.0 W/m2
12:04 32 °C 8.9 °C 1002.9 hPa SE 7.9 km/h 12.9 km/h 24% 0 mm 1039.0 W/m2
12:09 32.1 °C 9 °C 1002.9 hPa SSE 9.7 km/h 9.7 km/h 24% 0 mm 1074.0 W/m2
12:14 32.2 °C 8.4 °C 1002.9 hPa SE 3.2 km/h 12.9 km/h 23% 0 mm 1072.0 W/m2
12:19 32.4 °C 8.6 °C 1002.9 hPa WSW 3.2 km/h 11.3 km/h 23% 0 mm 114.0 W/m2
12:24 32 °C 8.3 °C 1002.9 hPa SE 7.9 km/h 11.3 km/h 23% 0 mm 146.0 W/m2
12:29 31.6 °C 7.9 °C 1002.6 hPa ESE 1.4 km/h 8 km/h 23% 0 mm 1151.0 W/m2
12:34 31.8 °C 8.1 °C 1002.6 hPa NNE 9.7 km/h 16.1 km/h 23% 0 mm 1151.0 W/m2
12:40 32.2 °C 8.4 °C 1002.6 hPa WSW 3.2 km/h 9.7 km/h 23% 0 mm 1162.0 W/m2
12:45 32.2 °C 8.4 °C 1002.6 hPa WSW 11.1 km/h 12.9 km/h 23% 0 mm 1165.0 W/m2
12:51 31.8 °C 8.1 °C 1002.6 hPa Calm   8 km/h 23% 0 mm 244.0 W/m2
12:56 31.8 °C 8.1 °C 1002.6 hPa SE 4.7 km/h 14.5 km/h 23% 0 mm 1241.0 W/m2
13:01 32.1 °C 7.7 °C 1002.3 hPa NNW 1.4 km/h 3.2 km/h 22% 0 mm 1223.0 W/m2
13:06 32.4 °C 8 °C 1002.3 hPa NW 1.4 km/h 9.7 km/h 22% 0 mm 1266.0 W/m2
13:11 32.6 °C 8.1 °C 1002.3 hPa Calm   6.4 km/h 22% 0 mm 322.0 W/m2
13:16 32.6 °C 8.1 °C 1002.3 hPa East 6.4 km/h 16.1 km/h 22% 0 mm 237.0 W/m2
13:21 32.4 °C 8 °C 1002.3 hPa Calm   9.7 km/h 22% 0 mm 218.0 W/m2
13:27 32.4 °C 8.6 °C 1002.3 hPa ESE 3.2 km/h 6.4 km/h 23% 0 mm 216.0 W/m2
13:32 32.3 °C 7.9 °C 1002.3 hPa South 1.4 km/h 3.2 km/h 22% 0 mm 243.0 W/m2
13:37 32.2 °C 7.8 °C 1002.3 hPa SE 3.2 km/h 4.8 km/h 22% 0 mm 221.0 W/m2
13:42 32 °C 7.6 °C 1001.9 hPa SSW 1.4 km/h 3.2 km/h 22% 0 mm 281.0 W/m2
13:47 31.9 °C 7.5 °C 1001.9 hPa South 1.4 km/h 4.8 km/h 22% 0 mm 336.0 W/m2
13:52 31.9 °C 8.2 °C 1001.9 hPa Calm   11.3 km/h 23% 0 mm 352.0 W/m2
13:57 31.8 °C 8.1 °C 1001.9 hPa SW 3.2 km/h 9.7 km/h 23% 0 mm 413.0 W/m2
14:02 31.9 °C 8.2 °C 1001.9 hPa South 3.2 km/h 6.4 km/h 23% 0 mm 457.0 W/m2
14:07 32.1 °C 7 °C 1001.6 hPa Calm   6.4 km/h 21% 0 mm 1243.0 W/m2
14:12 32.4 °C 8 °C 1001.6 hPa Calm   6.4 km/h 22% 0 mm 1250.0 W/m2
14:17 33.1 °C 7.8 °C 1001.6 hPa ESE 1.4 km/h 11.3 km/h 21% 0 mm 1223.0 W/m2
14:22 33.8 °C 7.7 °C 1001.2 hPa SSE 7.9 km/h 11.3 km/h 20% 0 mm 1227.0 W/m2
14:28 34.4 °C 7.4 °C 1001.2 hPa South 3.2 km/h 12.9 km/h 19% 0 mm 1197.0 W/m2
14:33 34.5 °C 7.5 °C 1001.2 hPa SW 3.2 km/h 8 km/h 19% 0 mm 1216.0 W/m2
14:38 34.4 °C 7.4 °C 1000.9 hPa SW 4.7 km/h 8 km/h 19% 0 mm 1183.0 W/m2
14:43 34.4 °C 7.4 °C 1000.9 hPa SSE 16.3 km/h 24.1 km/h 19% 0 mm 1165.0 W/m2
14:48 34.6 °C 7.6 °C 1000.9 hPa East 7.9 km/h 16.1 km/h 19% 0 mm 1141.0 W/m2
14:53 34.8 °C 7 °C 1000.6 hPa South 1.4 km/h 4.8 km/h 18% 0 mm 1063.0 W/m2
14:58 34.8 °C 7 °C 1000.6 hPa SSW 4.7 km/h 11.3 km/h 18% 0 mm 1100.0 W/m2
15:03 34.7 °C 7.7 °C 1000.2 hPa South 3.2 km/h 9.7 km/h 19% 0 mm 1074.0 W/m2
15:08 34.7 °C 6.9 °C 1000.2 hPa SSW 7.9 km/h 11.3 km/h 18% 0 mm 1071.0 W/m2
15:14 34.7 °C 6.9 °C 1000.2 hPa ESE 1.4 km/h 11.3 km/h 18% 0 mm 1035.0 W/m2
15:19 35.2 °C 7.3 °C 1000.2 hPa SSW 1.4 km/h 4.8 km/h 18% 0 mm 1071.0 W/m2
15:24 35.4 °C 7.5 °C 1000.2 hPa ESE 11.1 km/h 12.9 km/h 18% 0 mm 267.0 W/m2
15:29 35.1 °C 6.4 °C 999.9 hPa East 11.1 km/h 14.5 km/h 17% 0 mm 236.0 W/m2
15:34 34.7 °C 6.9 °C 999.9 hPa South 9.7 km/h 12.9 km/h 18% 0 mm 292.0 W/m2
15:39 34.2 °C 6.5 °C 999.5 hPa SW 3.2 km/h 14.5 km/h 18% 0 mm 313.0 W/m2
15:44 34.1 °C 6.4 °C 999.5 hPa SSE 3.2 km/h 11.3 km/h 18% 0 mm 269.0 W/m2
15:49 33.8 °C 7 °C 999.5 hPa SSE 1.4 km/h 8 km/h 19% 0 mm 271.0 W/m2
15:54 33.7 °C 6.9 °C 999.5 hPa Calm   4.8 km/h 19% 0 mm 213.0 W/m2
16:00 33.6 °C 6.8 °C 999.5 hPa SE 3.2 km/h 3.2 km/h 19% 0 mm 179.0 W/m2
16:05 33.3 °C 6.5 °C 999.5 hPa SE 7.9 km/h 16.1 km/h 19% 0 mm 218.0 W/m2
16:10 33.1 °C 6.4 °C 999.2 hPa SSE 4.7 km/h 12.9 km/h 19% 0 mm 195.0 W/m2
16:15 32.9 °C 6.2 °C 999.2 hPa SE 4.7 km/h 8 km/h 19% 0 mm 160.0 W/m2
16:20 32.8 °C 6.1 °C 998.9 hPa ESE 3.2 km/h 9.7 km/h 19% 0 mm 121.0 W/m2
16:25 32.6 °C 6 °C 998.9 hPa Calm   1.6 km/h 19% 0 mm 98.0 W/m2
16:30 32.6 °C 6.7 °C 998.9 hPa Calm   4.8 km/h 20% 0 mm 100.0 W/m2
16:35 32.5 °C 5.9 °C 998.9 hPa Calm     19% 0 mm 90.0 W/m2
16:40 32.5 °C 6.6 °C 998.9 hPa Calm   3.2 km/h 20% 0 mm 67.0 W/m2
16:45 32.4 °C 5.8 °C 998.5 hPa Calm   4.8 km/h 19% 0 mm 53.0 W/m2
16:51 32.3 °C 5.7 °C 998.5 hPa WSW 3.2 km/h 8 km/h 19% 0 mm 47.0 W/m2
16:56 32.1 °C 5.6 °C 998.5 hPa SSW 3.2 km/h 4.8 km/h 19% 0 mm 49.0 W/m2
17:01 31.9 °C 6.1 °C 998.9 hPa SE 3.2 km/h 8 km/h 20% 0 mm 46.0 W/m2
17:06 31.8 °C 6.1 °C 998.9 hPa North 11.1 km/h 11.3 km/h 20% 0 mm 40.0 W/m2
17:11 31.2 °C 8.2 °C 998.9 hPa NE 9.7 km/h 17.7 km/h 24% 0 mm 35.0 W/m2
17:16 30.5 °C 8.2 °C 999.2 hPa West 4.7 km/h 14.5 km/h 25% 0 mm 35.0 W/m2
17:21 29.7 °C 10.3 °C 999.5 hPa North 14.3 km/h 24.1 km/h 30% 0 mm 33.0 W/m2
17:26 28.9 °C 11 °C 999.5 hPa NNE 14.3 km/h 22.5 km/h 33% 0 mm 39.0 W/m2
17:32 27.9 °C 10.1 °C 999.9 hPa NNW 7.9 km/h 22.5 km/h 33% 0 mm 40.0 W/m2
17:37 27.4 °C 11.4 °C 999.9 hPa NE 20.9 km/h 27.4 km/h 37% 0 mm 33.0 W/m2
17:43 26.4 °C 11.7 °C 1000.2 hPa NE 14.3 km/h 22.5 km/h 40% 0 mm 26.0 W/m2
17:48 25.9 °C 11.6 °C 1000.2 hPa NNE 17.7 km/h 30.6 km/h 41% 0 mm 30.0 W/m2
17:54 25.7 °C 11.8 °C 999.9 hPa NNE 9.7 km/h 17.7 km/h 42% 0 mm 40.0 W/m2
17:59 25.7 °C 11.8 °C 999.9 hPa NNE 11.1 km/h 19.3 km/h 42% 0 mm 60.0 W/m2
18:04 25.6 °C 12.1 °C 999.9 hPa North 9.7 km/h 20.9 km/h 43% 0 mm 113.0 W/m2
18:10 25.7 °C 12.5 °C 999.9 hPa North 9.7 km/h 17.7 km/h 44% 0 mm 134.0 W/m2
18:15 25.7 °C 12.9 °C 1000.2 hPa NNE 9.7 km/h 20.9 km/h 45% 0 mm 107.0 W/m2
18:21 25.6 °C 12.4 °C 1000.6 hPa North 4.7 km/h 11.3 km/h 44% 0 mm 62.0 W/m2
18:26 25.6 °C 12.4 °C 1000.6 hPa ESE 4.7 km/h 6.4 km/h 44% 0 mm 26.0 W/m2
18:31 25.6 °C 12.1 °C 1001.2 hPa Calm   6.4 km/h 43% 0 mm 14.0 W/m2
18:36 25.4 °C 11.6 °C 1001.2 hPa Calm   1.6 km/h 42% 0 mm 12.0 W/m2
18:41 25.4 °C 13.3 °C 1001.2 hPa WNW 1.4 km/h 3.2 km/h 47% 0 mm 18.0 W/m2
18:46 25.3 °C 14.1 °C 1001.2 hPa Calm   9.7 km/h 50% 0 mm 28.0 W/m2
18:51 25.1 °C 13.9 °C 1001.2 hPa Calm   3.2 km/h 50% 0 mm 26.0 W/m2
18:56 24.9 °C 13.1 °C 1001.6 hPa Calm   3.2 km/h 48% 0 mm 18.0 W/m2
19:02 24.9 °C 13.5 °C 1001.6 hPa Calm   3.2 km/h 49% 0 mm 11.0 W/m2
19:07 24.8 °C 13 °C 1001.9 hPa Calm   1.6 km/h 48% 0 mm 9.0 W/m2
19:12 24.7 °C 13.3 °C 1001.9 hPa East 3.2 km/h 3.2 km/h 49% 0 mm 7.0 W/m2
19:17 24.7 °C 13.9 °C 1002.3 hPa Calm   1.6 km/h 51% 0 mm 9.0 W/m2
19:22 24.7 °C 14.2 °C 1002.3 hPa Calm   3.2 km/h 52% 0 mm 9.0 W/m2
19:27 24.7 °C 13.9 °C 1002.3 hPa Calm   1.6 km/h 51% 0 mm 7.0 W/m2
19:32 24.7 °C 13.6 °C 1001.9 hPa Calm   3.2 km/h 50% 0 mm 9.0 W/m2
19:37 24.7 °C 12.6 °C 1001.9 hPa NNE 3.2 km/h 6.4 km/h 47% 0 mm 7.0 W/m2
19:42 24.7 °C 12.6 °C 1001.9 hPa Calm   4.8 km/h 47% 0 mm 0.0 W/m2
19:48 24.7 °C 12.3 °C 1001.6 hPa Calm   1.6 km/h 46% 0 mm 0.0 W/m2
19:53 24.8 °C 11.7 °C 1001.9 hPa Calm   6.4 km/h 44% 0 mm 0.0 W/m2
19:58 24.9 °C 11.8 °C 1001.6 hPa NNE 3.2 km/h 6.4 km/h 44% 0 mm 0.0 W/m2
20:03 24.9 °C 12.1 °C 1001.6 hPa Calm   4.8 km/h 45% 0 mm 0.0 W/m2
20:08 24.8 °C 11.4 °C 1001.9 hPa Calm   8 km/h 43% 0 mm 0.0 W/m2
20:13 24.9 °C 11.8 °C 1002.3 hPa WSW 1.4 km/h 3.2 km/h 44% 0 mm 0.0 W/m2
20:18 24.9 °C 11.5 °C 1002.6 hPa West 3.2 km/h 11.3 km/h 43% 0 mm 0.0 W/m2
20:23 25.1 °C 12 °C 1002.6 hPa Calm   12.9 km/h 44% 0 mm 0.0 W/m2
20:29 25.1 °C 13 °C 1002.9 hPa WSW 4.7 km/h 11.3 km/h 47% 0 mm 0.0 W/m2
20:34 24.8 °C 13.7 °C 1002.9 hPa SSW 9.7 km/h 16.1 km/h 50% 0 mm 0.0 W/m2
20:39 24.4 °C 13.6 °C 1003.3 hPa Calm   9.7 km/h 51% 0 mm 0.0 W/m2
20:44 24.3 °C 13.8 °C 1003.3 hPa Calm   8 km/h 52% 0 mm 0.0 W/m2
20:49 24.1 °C 13.3 °C 1003.3 hPa Calm   3.2 km/h 51% 0 mm 0.0 W/m2
20:54 24.1 °C 13.6 °C 1003.3 hPa SE 1.4 km/h 6.4 km/h 52% 0 mm 0.0 W/m2
20:59 23.9 °C 13.1 °C 1003.3 hPa SW 1.4 km/h 4.8 km/h 51% 0 mm 0.0 W/m2
21:04 23.9 °C 13.4 °C 1003.3 hPa Calm   3.2 km/h 52% 0 mm 0.0 W/m2
21:09 23.8 °C 13.6 °C 1003.3 hPa SE 1.4 km/h 4.8 km/h 53% 0 mm 0.0 W/m2
21:15 23.7 °C 13.6 °C 1003.3 hPa Calm     53% 0 mm 0.0 W/m2
21:20 23.7 °C 13.8 °C 1003.6 hPa Calm   1.6 km/h 54% 0 mm 0.0 W/m2
21:25 23.6 °C 12.9 °C 1003.6 hPa Calm   4.8 km/h 51% 0 mm 0.0 W/m2
21:30 23.6 °C 12.6 °C 1003.9 hPa Calm   1.6 km/h 50% 0 mm 0.0 W/m2
21:35 23.7 °C 12.7 °C 1003.9 hPa SSW 1.4 km/h 1.6 km/h 50% 0 mm 0.0 W/m2
21:40 23.7 °C 12.7 °C 1003.9 hPa Calm   1.6 km/h 50% 0 mm 0.0 W/m2
21:45 23.7 °C 12.7 °C 1003.9 hPa Calm     50% 0 mm 0.0 W/m2
21:50 23.7 °C 12 °C 1003.9 hPa WNW 1.4 km/h 8 km/h 48% 0 mm 0.0 W/m2
21:55 23.7 °C 11.7 °C 1003.9 hPa West 3.2 km/h 4.8 km/h 47% 0 mm 0.0 W/m2
22:01 23.7 °C 11.7 °C 1003.9 hPa Calm   1.6 km/h 47% 0 mm 0.0 W/m2
22:06 23.8 °C 11.8 °C 1003.9 hPa Calm     47% 0 mm 0.0 W/m2
22:11 23.8 °C 11.8 °C 1003.9 hPa Calm     47% 0 mm 0.0 W/m2
22:16 23.8 °C 11.5 °C 1003.9 hPa Calm     46% 0 mm 0.0 W/m2
22:21 23.7 °C 11.4 °C 1003.9 hPa Calm     46% 0 mm 0.0 W/m2
22:26 23.7 °C 11.7 °C 1003.9 hPa Calm     47% 0 mm 0.0 W/m2
22:31 23.7 °C 11.7 °C 1003.9 hPa Calm     47% 0 mm 0.0 W/m2
22:37 23.7 °C 11.7 °C 1003.9 hPa Calm   3.2 km/h 47% 0 mm 0.0 W/m2
22:42 23.7 °C 11.7 °C 1003.9 hPa Calm   1.6 km/h 47% 0 mm 0.0 W/m2
22:47 23.7 °C 12 °C 1004.3 hPa Calm   1.6 km/h 48% 0 mm 0.0 W/m2
22:53 23.6 °C 11.6 °C 1003.9 hPa Calm   1.6 km/h 47% 0 mm 0.0 W/m2
22:58 23.6 °C 11.6 °C 1003.9 hPa Calm     47% 0 mm 0.0 W/m2
23:03 23.6 °C 11.6 °C 1003.9 hPa Calm     47% 0 mm 0.0 W/m2
23:08 23.6 °C 11.6 °C 1004.3 hPa Calm     47% 0 mm 0.0 W/m2
23:13 23.5 °C 11.9 °C 1004.3 hPa Calm   1.6 km/h 48% 0 mm 0.0 W/m2
23:18 23.4 °C 12.1 °C 1004.3 hPa Calm     49% 0 mm 0.0 W/m2
23:23 23.3 °C 12 °C 1004.3 hPa NE 3.2 km/h 4.8 km/h 49% 0 mm 0.0 W/m2
23:28 23.2 °C 12.2 °C 1004.3 hPa Calm   1.6 km/h 50% 0 mm 0.0 W/m2
23:33 23.1 °C 11.8 °C 1004.3 hPa NE 4.7 km/h 6.4 km/h 49% 0 mm 0.0 W/m2
23:38 23.1 °C 11.8 °C 1004.3 hPa ENE 3.2 km/h 4.8 km/h 49% 0 mm 0.0 W/m2
23:43 23 °C 11.7 °C 1004.3 hPa Calm   3.2 km/h 49% 0 mm 0.0 W/m2
23:48 23 °C 12 °C 1004.3 hPa Calm   1.6 km/h 50% 0 mm 0.0 W/m2
23:54 23 °C 12 °C 1003.9 hPa Calm   1.6 km/h 50% 0 mm 0.0 W/m2
23:59 23 °C 12 °C 1003.9 hPa Calm     50% 0 mm 0.0 W/m2
Olympia, Windhoek, Namibia
Compliments of Weather Underground - 3.25 mb